sensor_id;sensor_type;location;lat;lon;timestamp;P1;durP1;ratioP1;P2;durP2;ratioP2
23714;SDS011;12036;50.858;4.472;2023-05-10T00:00:23;11.15;;;5.72;;
23714;SDS011;12036;50.858;4.472;2023-05-10T00:02:49;14.57;;;6.25;;
23714;SDS011;12036;50.858;4.472;2023-05-10T00:05:15;10.75;;;5.97;;
23714;SDS011;12036;50.858;4.472;2023-05-10T00:07:40;12.75;;;5.93;;
23714;SDS011;12036;50.858;4.472;2023-05-10T00:10:09;13.18;;;6.97;;
23714;SDS011;12036;50.858;4.472;2023-05-10T00:12:36;17.95;;;7.20;;
23714;SDS011;12036;50.858;4.472;2023-05-10T00:15:01;18.88;;;7.07;;
23714;SDS011;12036;50.858;4.472;2023-05-10T00:17:27;20.73;;;7.05;;
23714;SDS011;12036;50.858;4.472;2023-05-10T00:19:53;13.43;;;7.68;;
23714;SDS011;12036;50.858;4.472;2023-05-10T00:22:19;15.82;;;6.32;;
23714;SDS011;12036;50.858;4.472;2023-05-10T00:24:45;14.32;;;7.18;;
23714;SDS011;12036;50.858;4.472;2023-05-10T00:27:11;17.73;;;7.47;;
23714;SDS011;12036;50.858;4.472;2023-05-10T00:29:36;14.55;;;7.65;;
23714;SDS011;12036;50.858;4.472;2023-05-10T00:32:02;16.30;;;7.50;;
23714;SDS011;12036;50.858;4.472;2023-05-10T00:34:28;15.18;;;7.57;;
23714;SDS011;12036;50.858;4.472;2023-05-10T00:36:53;15.02;;;7.22;;
23714;SDS011;12036;50.858;4.472;2023-05-10T00:39:19;16.23;;;7.97;;
23714;SDS011;12036;50.858;4.472;2023-05-10T00:41:45;17.63;;;7.72;;
23714;SDS011;12036;50.858;4.472;2023-05-10T00:44:10;14.88;;;7.28;;
23714;SDS011;12036;50.858;4.472;2023-05-10T00:46:36;17.33;;;6.80;;
23714;SDS011;12036;50.858;4.472;2023-05-10T00:49:02;13.60;;;7.53;;
23714;SDS011;12036;50.858;4.472;2023-05-10T00:51:28;14.45;;;7.93;;
23714;SDS011;12036;50.858;4.472;2023-05-10T00:53:53;16.27;;;8.27;;
23714;SDS011;12036;50.858;4.472;2023-05-10T00:56:21;21.83;;;7.57;;
23714;SDS011;12036;50.858;4.472;2023-05-10T00:58:48;16.20;;;6.80;;
23714;SDS011;12036;50.858;4.472;2023-05-10T01:01:14;16.10;;;8.13;;
23714;SDS011;12036;50.858;4.472;2023-05-10T01:03:40;13.77;;;8.27;;
23714;SDS011;12036;50.858;4.472;2023-05-10T01:06:06;18.77;;;8.63;;
23714;SDS011;12036;50.858;4.472;2023-05-10T01:08:32;18.67;;;7.90;;
23714;SDS011;12036;50.858;4.472;2023-05-10T01:10:58;19.63;;;8.20;;
23714;SDS011;12036;50.858;4.472;2023-05-10T01:13:32;19.58;;;8.48;;
23714;SDS011;12036;50.858;4.472;2023-05-10T01:15:59;19.35;;;8.75;;
23714;SDS011;12036;50.858;4.472;2023-05-10T01:18:27;17.70;;;8.60;;
23714;SDS011;12036;50.858;4.472;2023-05-10T01:21:02;20.15;;;8.88;;
23714;SDS011;12036;50.858;4.472;2023-05-10T01:23:33;15.63;;;8.45;;
23714;SDS011;12036;50.858;4.472;2023-05-10T01:31:39;19.08;;;8.88;;
23714;SDS011;12036;50.858;4.472;2023-05-10T01:34:32;17.30;;;9.25;;
23714;SDS011;12036;50.858;4.472;2023-05-10T01:37:11;21.63;;;8.98;;
23714;SDS011;12036;50.858;4.472;2023-05-10T01:42:10;19.75;;;9.70;;
23714;SDS011;12036;50.858;4.472;2023-05-10T01:44:39;21.23;;;9.80;;
23714;SDS011;12036;50.858;4.472;2023-05-10T01:50:10;21.48;;;10.02;;
23714;SDS011;12036;50.858;4.472;2023-05-10T01:52:44;20.92;;;11.30;;
23714;SDS011;12036;50.858;4.472;2023-05-10T01:55:15;23.67;;;10.00;;
23714;SDS011;12036;50.858;4.472;2023-05-10T01:57:43;22.08;;;10.68;;
23714;SDS011;12036;50.858;4.472;2023-05-10T02:00:11;26.25;;;10.80;;
23714;SDS011;12036;50.858;4.472;2023-05-10T02:02:39;16.02;;;9.27;;
23714;SDS011;12036;50.858;4.472;2023-05-10T02:05:09;17.27;;;9.80;;
23714;SDS011;12036;50.858;4.472;2023-05-10T02:07:38;18.23;;;10.15;;
23714;SDS011;12036;50.858;4.472;2023-05-10T02:10:06;16.73;;;8.85;;
23714;SDS011;12036;50.858;4.472;2023-05-10T02:12:37;21.00;;;9.93;;
23714;SDS011;12036;50.858;4.472;2023-05-10T02:15:06;22.90;;;10.38;;
23714;SDS011;12036;50.858;4.472;2023-05-10T02:17:34;17.23;;;9.68;;
23714;SDS011;12036;50.858;4.472;2023-05-10T02:20:02;19.00;;;9.55;;
23714;SDS011;12036;50.858;4.472;2023-05-10T02:22:30;18.83;;;10.05;;
23714;SDS011;12036;50.858;4.472;2023-05-10T02:24:57;19.17;;;9.98;;
23714;SDS011;12036;50.858;4.472;2023-05-10T02:27:25;21.45;;;9.95;;
23714;SDS011;12036;50.858;4.472;2023-05-10T02:29:52;17.25;;;8.95;;
23714;SDS011;12036;50.858;4.472;2023-05-10T02:32:19;18.13;;;9.55;;
23714;SDS011;12036;50.858;4.472;2023-05-10T02:34:47;21.67;;;9.52;;
23714;SDS011;12036;50.858;4.472;2023-05-10T02:37:16;20.67;;;9.90;;
23714;SDS011;12036;50.858;4.472;2023-05-10T02:39:45;20.42;;;9.55;;
23714;SDS011;12036;50.858;4.472;2023-05-10T02:42:21;18.17;;;9.50;;
23714;SDS011;12036;50.858;4.472;2023-05-10T02:44:50;19.88;;;10.05;;
23714;SDS011;12036;50.858;4.472;2023-05-10T02:47:18;22.25;;;10.05;;
23714;SDS011;12036;50.858;4.472;2023-05-10T02:49:44;17.08;;;8.65;;
23714;SDS011;12036;50.858;4.472;2023-05-10T02:52:10;17.02;;;8.90;;
23714;SDS011;12036;50.858;4.472;2023-05-10T02:54:43;17.98;;;8.73;;
23714;SDS011;12036;50.858;4.472;2023-05-10T02:57:11;19.45;;;8.32;;
23714;SDS011;12036;50.858;4.472;2023-05-10T02:59:41;15.40;;;8.52;;
23714;SDS011;12036;50.858;4.472;2023-05-10T03:02:10;19.48;;;9.10;;
23714;SDS011;12036;50.858;4.472;2023-05-10T03:04:38;20.90;;;8.95;;
23714;SDS011;12036;50.858;4.472;2023-05-10T03:07:04;20.10;;;8.27;;
23714;SDS011;12036;50.858;4.472;2023-05-10T03:09:30;13.35;;;7.70;;
23714;SDS011;12036;50.858;4.472;2023-05-10T03:12:00;17.65;;;7.60;;
23714;SDS011;12036;50.858;4.472;2023-05-10T03:14:53;21.40;;;8.48;;
23714;SDS011;12036;50.858;4.472;2023-05-10T03:20:29;20.15;;;8.20;;
23714;SDS011;12036;50.858;4.472;2023-05-10T03:26:26;18.42;;;8.18;;
23714;SDS011;12036;50.858;4.472;2023-05-10T03:28:53;17.60;;;7.95;;
23714;SDS011;12036;50.858;4.472;2023-05-10T03:31:20;16.77;;;8.30;;
23714;SDS011;12036;50.858;4.472;2023-05-10T03:33:50;16.88;;;7.88;;
23714;SDS011;12036;50.858;4.472;2023-05-10T03:36:16;18.92;;;9.02;;
23714;SDS011;12036;50.858;4.472;2023-05-10T03:38:42;17.20;;;9.23;;
23714;SDS011;12036;50.858;4.472;2023-05-10T03:41:08;20.10;;;9.52;;
23714;SDS011;12036;50.858;4.472;2023-05-10T03:43:34;17.90;;;9.95;;
23714;SDS011;12036;50.858;4.472;2023-05-10T03:46:03;22.50;;;9.60;;
23714;SDS011;12036;50.858;4.472;2023-05-10T03:48:29;17.90;;;9.20;;
23714;SDS011;12036;50.858;4.472;2023-05-10T03:50:55;17.58;;;9.38;;
23714;SDS011;12036;50.858;4.472;2023-05-10T03:53:21;23.65;;;10.75;;
23714;SDS011;12036;50.858;4.472;2023-05-10T03:55:48;22.17;;;10.80;;
23714;SDS011;12036;50.858;4.472;2023-05-10T03:58:14;24.95;;;10.63;;
23714;SDS011;12036;50.858;4.472;2023-05-10T04:00:40;20.13;;;10.35;;
23714;SDS011;12036;50.858;4.472;2023-05-10T04:03:09;24.55;;;11.25;;
23714;SDS011;12036;50.858;4.472;2023-05-10T04:05:35;23.75;;;10.68;;
23714;SDS011;12036;50.858;4.472;2023-05-10T04:08:01;26.70;;;11.20;;
23714;SDS011;12036;50.858;4.472;2023-05-10T04:10:27;28.13;;;12.63;;
23714;SDS011;12036;50.858;4.472;2023-05-10T04:12:53;30.52;;;12.10;;
23714;SDS011;12036;50.858;4.472;2023-05-10T04:15:18;27.67;;;12.43;;
23714;SDS011;12036;50.858;4.472;2023-05-10T04:17:44;28.33;;;12.23;;
23714;SDS011;12036;50.858;4.472;2023-05-10T04:20:10;27.63;;;13.18;;
23714;SDS011;12036;50.858;4.472;2023-05-10T04:22:36;25.60;;;12.48;;
23714;SDS011;12036;50.858;4.472;2023-05-10T04:25:02;29.65;;;13.63;;
23714;SDS011;12036;50.858;4.472;2023-05-10T04:27:27;28.35;;;12.82;;
23714;SDS011;12036;50.858;4.472;2023-05-10T04:29:53;31.23;;;12.98;;
23714;SDS011;12036;50.858;4.472;2023-05-10T04:32:19;30.85;;;13.68;;
23714;SDS011;12036;50.858;4.472;2023-05-10T04:34:45;34.20;;;14.10;;
23714;SDS011;12036;50.858;4.472;2023-05-10T04:37:10;34.40;;;15.25;;
23714;SDS011;12036;50.858;4.472;2023-05-10T04:39:36;26.13;;;13.30;;
23714;SDS011;12036;50.858;4.472;2023-05-10T04:42:05;32.88;;;12.68;;
23714;SDS011;12036;50.858;4.472;2023-05-10T04:44:31;33.80;;;14.20;;
23714;SDS011;12036;50.858;4.472;2023-05-10T04:46:57;34.17;;;15.38;;
23714;SDS011;12036;50.858;4.472;2023-05-10T04:49:23;37.83;;;14.80;;
23714;SDS011;12036;50.858;4.472;2023-05-10T04:51:48;37.50;;;14.43;;
23714;SDS011;12036;50.858;4.472;2023-05-10T04:54:14;35.25;;;14.68;;
23714;SDS011;12036;50.858;4.472;2023-05-10T04:56:40;34.67;;;14.55;;
23714;SDS011;12036;50.858;4.472;2023-05-10T04:59:06;37.28;;;14.40;;
23714;SDS011;12036;50.858;4.472;2023-05-10T05:01:32;37.72;;;14.90;;
23714;SDS011;12036;50.858;4.472;2023-05-10T05:03:57;39.60;;;14.40;;
23714;SDS011;12036;50.858;4.472;2023-05-10T05:06:24;29.08;;;13.77;;
23714;SDS011;12036;50.858;4.472;2023-05-10T05:08:50;38.08;;;15.07;;
23714;SDS011;12036;50.858;4.472;2023-05-10T05:11:16;38.17;;;15.70;;
23714;SDS011;12036;50.858;4.472;2023-05-10T05:13:42;33.15;;;13.82;;
23714;SDS011;12036;50.858;4.472;2023-05-10T05:16:08;36.80;;;15.18;;
23714;SDS011;12036;50.858;4.472;2023-05-10T05:18:33;37.17;;;14.38;;
23714;SDS011;12036;50.858;4.472;2023-05-10T05:20:59;34.40;;;15.13;;
23714;SDS011;12036;50.858;4.472;2023-05-10T05:23:26;39.45;;;15.63;;
23714;SDS011;12036;50.858;4.472;2023-05-10T05:25:52;41.92;;;14.75;;
23714;SDS011;12036;50.858;4.472;2023-05-10T05:28:18;34.47;;;14.23;;
23714;SDS011;12036;50.858;4.472;2023-05-10T05:30:45;34.00;;;14.13;;
23714;SDS011;12036;50.858;4.472;2023-05-10T05:33:11;37.20;;;14.98;;
23714;SDS011;12036;50.858;4.472;2023-05-10T05:35:38;32.70;;;14.48;;
23714;SDS011;12036;50.858;4.472;2023-05-10T05:38:03;38.00;;;14.90;;
23714;SDS011;12036;50.858;4.472;2023-05-10T05:40:29;33.35;;;14.63;;
23714;SDS011;12036;50.858;4.472;2023-05-10T05:42:55;37.63;;;15.02;;
23714;SDS011;12036;50.858;4.472;2023-05-10T05:45:20;33.25;;;14.32;;
23714;SDS011;12036;50.858;4.472;2023-05-10T05:47:46;30.13;;;13.98;;
23714;SDS011;12036;50.858;4.472;2023-05-10T05:50:12;35.85;;;15.25;;
23714;SDS011;12036;50.858;4.472;2023-05-10T05:52:37;29.38;;;14.57;;
23714;SDS011;12036;50.858;4.472;2023-05-10T05:55:03;40.55;;;14.63;;
23714;SDS011;12036;50.858;4.472;2023-05-10T05:57:29;33.47;;;14.48;;
23714;SDS011;12036;50.858;4.472;2023-05-10T05:59:55;34.08;;;13.82;;
23714;SDS011;12036;50.858;4.472;2023-05-10T06:02:21;34.28;;;12.82;;
23714;SDS011;12036;50.858;4.472;2023-05-10T06:04:46;25.13;;;11.88;;
23714;SDS011;12036;50.858;4.472;2023-05-10T06:07:12;21.38;;;10.93;;
23714;SDS011;12036;50.858;4.472;2023-05-10T06:09:37;23.90;;;10.73;;
23714;SDS011;12036;50.858;4.472;2023-05-10T06:12:03;19.13;;;9.38;;
23714;SDS011;12036;50.858;4.472;2023-05-10T06:14:29;19.38;;;9.68;;
23714;SDS011;12036;50.858;4.472;2023-05-10T06:16:54;20.23;;;9.95;;
23714;SDS011;12036;50.858;4.472;2023-05-10T06:19:20;22.70;;;9.98;;
23714;SDS011;12036;50.858;4.472;2023-05-10T06:21:46;21.55;;;10.43;;
23714;SDS011;12036;50.858;4.472;2023-05-10T06:24:11;18.00;;;10.25;;
23714;SDS011;12036;50.858;4.472;2023-05-10T06:26:37;18.05;;;10.30;;
23714;SDS011;12036;50.858;4.472;2023-05-10T06:29:02;21.25;;;9.60;;
23714;SDS011;12036;50.858;4.472;2023-05-10T06:31:28;22.30;;;10.32;;
23714;SDS011;12036;50.858;4.472;2023-05-10T06:33:53;22.45;;;9.50;;
23714;SDS011;12036;50.858;4.472;2023-05-10T06:36:19;19.40;;;10.05;;
23714;SDS011;12036;50.858;4.472;2023-05-10T06:38:45;15.93;;;8.18;;
23714;SDS011;12036;50.858;4.472;2023-05-10T06:41:11;17.75;;;8.10;;
23714;SDS011;12036;50.858;4.472;2023-05-10T06:43:36;18.42;;;8.05;;
23714;SDS011;12036;50.858;4.472;2023-05-10T06:46:05;15.00;;;7.05;;
23714;SDS011;12036;50.858;4.472;2023-05-10T06:48:31;10.07;;;6.00;;
23714;SDS011;12036;50.858;4.472;2023-05-10T06:50:57;11.45;;;4.88;;
23714;SDS011;12036;50.858;4.472;2023-05-10T06:53:23;10.68;;;5.40;;
23714;SDS011;12036;50.858;4.472;2023-05-10T06:55:49;9.32;;;4.40;;
23714;SDS011;12036;50.858;4.472;2023-05-10T06:58:15;9.75;;;4.38;;
23714;SDS011;12036;50.858;4.472;2023-05-10T07:00:41;8.50;;;3.75;;
23714;SDS011;12036;50.858;4.472;2023-05-10T07:03:08;9.38;;;3.55;;
23714;SDS011;12036;50.858;4.472;2023-05-10T07:05:35;7.25;;;3.53;;
23714;SDS011;12036;50.858;4.472;2023-05-10T07:08:00;4.70;;;3.30;;
23714;SDS011;12036;50.858;4.472;2023-05-10T07:10:26;9.02;;;4.10;;
23714;SDS011;12036;50.858;4.472;2023-05-10T07:12:52;5.45;;;3.55;;
23714;SDS011;12036;50.858;4.472;2023-05-10T07:15:18;6.82;;;4.03;;
23714;SDS011;12036;50.858;4.472;2023-05-10T07:17:43;6.47;;;4.53;;
23714;SDS011;12036;50.858;4.472;2023-05-10T07:20:10;7.53;;;4.57;;
23714;SDS011;12036;50.858;4.472;2023-05-10T07:22:36;9.20;;;4.88;;
23714;SDS011;12036;50.858;4.472;2023-05-10T07:25:02;16.35;;;5.50;;
23714;SDS011;12036;50.858;4.472;2023-05-10T07:27:27;11.88;;;5.25;;
23714;SDS011;12036;50.858;4.472;2023-05-10T07:29:53;14.07;;;6.03;;
23714;SDS011;12036;50.858;4.472;2023-05-10T07:32:19;12.13;;;5.25;;
23714;SDS011;12036;50.858;4.472;2023-05-10T07:34:45;10.52;;;6.38;;
23714;SDS011;12036;50.858;4.472;2023-05-10T07:37:11;12.57;;;6.10;;
23714;SDS011;12036;50.858;4.472;2023-05-10T07:39:37;13.85;;;6.25;;
23714;SDS011;12036;50.858;4.472;2023-05-10T07:42:02;12.68;;;6.35;;
23714;SDS011;12036;50.858;4.472;2023-05-10T07:44:28;18.42;;;6.88;;
23714;SDS011;12036;50.858;4.472;2023-05-10T07:46:54;16.45;;;6.50;;
23714;SDS011;12036;50.858;4.472;2023-05-10T07:49:20;16.10;;;7.10;;
23714;SDS011;12036;50.858;4.472;2023-05-10T07:51:46;21.17;;;7.53;;
23714;SDS011;12036;50.858;4.472;2023-05-10T07:54:13;13.25;;;6.70;;
23714;SDS011;12036;50.858;4.472;2023-05-10T07:56:39;22.00;;;7.63;;
23714;SDS011;12036;50.858;4.472;2023-05-10T07:59:09;16.20;;;7.72;;
23714;SDS011;12036;50.858;4.472;2023-05-10T08:01:35;16.38;;;7.43;;
23714;SDS011;12036;50.858;4.472;2023-05-10T08:04:01;15.38;;;7.00;;
23714;SDS011;12036;50.858;4.472;2023-05-10T08:06:27;15.02;;;7.15;;
23714;SDS011;12036;50.858;4.472;2023-05-10T08:08:54;15.23;;;7.50;;
23714;SDS011;12036;50.858;4.472;2023-05-10T08:11:20;14.35;;;6.97;;
23714;SDS011;12036;50.858;4.472;2023-05-10T08:13:46;17.30;;;7.63;;
23714;SDS011;12036;50.858;4.472;2023-05-10T08:16:13;16.80;;;7.43;;
23714;SDS011;12036;50.858;4.472;2023-05-10T08:18:39;17.10;;;6.72;;
23714;SDS011;12036;50.858;4.472;2023-05-10T08:21:05;12.45;;;6.82;;
23714;SDS011;12036;50.858;4.472;2023-05-10T08:23:31;14.57;;;7.70;;
23714;SDS011;12036;50.858;4.472;2023-05-10T08:25:56;12.43;;;6.68;;
23714;SDS011;12036;50.858;4.472;2023-05-10T08:28:22;13.95;;;7.05;;
23714;SDS011;12036;50.858;4.472;2023-05-10T08:30:49;14.45;;;6.50;;
23714;SDS011;12036;50.858;4.472;2023-05-10T08:33:15;16.55;;;7.90;;
23714;SDS011;12036;50.858;4.472;2023-05-10T08:35:42;13.48;;;7.88;;
23714;SDS011;12036;50.858;4.472;2023-05-10T08:38:07;14.90;;;7.70;;
23714;SDS011;12036;50.858;4.472;2023-05-10T08:40:33;12.77;;;7.05;;
23714;SDS011;12036;50.858;4.472;2023-05-10T08:43:04;16.83;;;7.63;;
23714;SDS011;12036;50.858;4.472;2023-05-10T08:45:32;13.63;;;6.15;;
23714;SDS011;12036;50.858;4.472;2023-05-10T08:48:02;13.00;;;6.40;;
23714;SDS011;12036;50.858;4.472;2023-05-10T08:50:29;11.00;;;6.00;;
23714;SDS011;12036;50.858;4.472;2023-05-10T08:52:57;11.60;;;6.47;;
23714;SDS011;12036;50.858;4.472;2023-05-10T08:55:25;11.30;;;5.53;;
23714;SDS011;12036;50.858;4.472;2023-05-10T08:57:51;12.82;;;5.45;;
23714;SDS011;12036;50.858;4.472;2023-05-10T09:00:17;9.82;;;4.45;;
23714;SDS011;12036;50.858;4.472;2023-05-10T09:02:44;8.35;;;4.25;;
23714;SDS011;12036;50.858;4.472;2023-05-10T09:05:12;11.20;;;5.22;;
23714;SDS011;12036;50.858;4.472;2023-05-10T09:07:40;9.55;;;4.35;;
23714;SDS011;12036;50.858;4.472;2023-05-10T09:10:07;6.50;;;3.97;;
23714;SDS011;12036;50.858;4.472;2023-05-10T09:12:34;7.43;;;4.35;;
23714;SDS011;12036;50.858;4.472;2023-05-10T09:15:00;8.63;;;4.45;;
23714;SDS011;12036;50.858;4.472;2023-05-10T09:17:27;8.32;;;4.47;;
23714;SDS011;12036;50.858;4.472;2023-05-10T09:20:01;7.65;;;4.00;;
23714;SDS011;12036;50.858;4.472;2023-05-10T09:22:29;8.43;;;4.72;;
23714;SDS011;12036;50.858;4.472;2023-05-10T09:25:08;8.25;;;4.53;;
23714;SDS011;12036;50.858;4.472;2023-05-10T09:27:38;9.68;;;4.78;;
23714;SDS011;12036;50.858;4.472;2023-05-10T09:30:06;9.02;;;5.13;;
23714;SDS011;12036;50.858;4.472;2023-05-10T09:32:50;8.40;;;5.47;;
23714;SDS011;12036;50.858;4.472;2023-05-10T09:35:17;9.52;;;5.15;;
23714;SDS011;12036;50.858;4.472;2023-05-10T09:37:46;10.35;;;5.47;;
23714;SDS011;12036;50.858;4.472;2023-05-10T09:40:21;10.75;;;5.05;;
23714;SDS011;12036;50.858;4.472;2023-05-10T09:42:55;10.05;;;5.30;;
23714;SDS011;12036;50.858;4.472;2023-05-10T09:45:29;9.68;;;4.95;;
23714;SDS011;12036;50.858;4.472;2023-05-10T09:47:56;9.32;;;4.18;;
23714;SDS011;12036;50.858;4.472;2023-05-10T09:50:22;8.13;;;4.57;;
23714;SDS011;12036;50.858;4.472;2023-05-10T09:55:16;7.82;;;3.92;;
23714;SDS011;12036;50.858;4.472;2023-05-10T09:57:43;4.97;;;3.55;;
23714;SDS011;12036;50.858;4.472;2023-05-10T10:00:10;5.72;;;3.30;;
23714;SDS011;12036;50.858;4.472;2023-05-10T10:02:41;10.20;;;3.90;;
23714;SDS011;12036;50.858;4.472;2023-05-10T10:05:07;6.35;;;3.53;;
23714;SDS011;12036;50.858;4.472;2023-05-10T10:07:32;7.65;;;3.83;;
23714;SDS011;12036;50.858;4.472;2023-05-10T10:09:59;5.25;;;3.15;;
23714;SDS011;12036;50.858;4.472;2023-05-10T10:12:25;4.63;;;3.65;;
23714;SDS011;12036;50.858;4.472;2023-05-10T10:14:51;4.93;;;3.30;;
23714;SDS011;12036;50.858;4.472;2023-05-10T10:17:18;4.45;;;3.13;;
23714;SDS011;12036;50.858;4.472;2023-05-10T10:19:45;5.55;;;3.33;;
23714;SDS011;12036;50.858;4.472;2023-05-10T10:22:12;4.18;;;3.08;;
23714;SDS011;12036;50.858;4.472;2023-05-10T10:24:38;6.85;;;3.45;;
23714;SDS011;12036;50.858;4.472;2023-05-10T10:27:19;4.72;;;3.15;;
23714;SDS011;12036;50.858;4.472;2023-05-10T10:29:59;6.70;;;2.75;;
23714;SDS011;12036;50.858;4.472;2023-05-10T10:35:19;6.63;;;3.17;;
23714;SDS011;12036;50.858;4.472;2023-05-10T10:37:46;5.10;;;3.28;;
23714;SDS011;12036;50.858;4.472;2023-05-10T10:40:22;5.25;;;3.53;;
23714;SDS011;12036;50.858;4.472;2023-05-10T10:42:53;4.68;;;3.10;;
23714;SDS011;12036;50.858;4.472;2023-05-10T10:45:20;5.13;;;3.20;;
23714;SDS011;12036;50.858;4.472;2023-05-10T10:47:47;4.57;;;3.15;;
23714;SDS011;12036;50.858;4.472;2023-05-10T10:50:13;6.18;;;3.13;;
23714;SDS011;12036;50.858;4.472;2023-05-10T10:52:41;6.05;;;3.78;;
23714;SDS011;12036;50.858;4.472;2023-05-10T10:55:08;5.28;;;3.42;;
23714;SDS011;12036;50.858;4.472;2023-05-10T11:02:49;5.75;;;3.60;;
23714;SDS011;12036;50.858;4.472;2023-05-10T11:08:11;6.90;;;3.40;;
23714;SDS011;12036;50.858;4.472;2023-05-10T11:10:37;7.65;;;3.35;;
23714;SDS011;12036;50.858;4.472;2023-05-10T11:13:05;5.97;;;3.13;;
23714;SDS011;12036;50.858;4.472;2023-05-10T11:15:35;5.57;;;3.53;;
23714;SDS011;12036;50.858;4.472;2023-05-10T11:18:18;4.72;;;3.30;;
23714;SDS011;12036;50.858;4.472;2023-05-10T11:20:49;7.93;;;3.95;;
23714;SDS011;12036;50.858;4.472;2023-05-10T11:23:21;6.85;;;4.18;;
23714;SDS011;12036;50.858;4.472;2023-05-10T11:25:47;4.95;;;3.90;;
23714;SDS011;12036;50.858;4.472;2023-05-10T11:28:16;4.82;;;3.47;;
23714;SDS011;12036;50.858;4.472;2023-05-10T11:30:43;4.05;;;3.22;;
23714;SDS011;12036;50.858;4.472;2023-05-10T11:33:09;6.72;;;3.80;;
23714;SDS011;12036;50.858;4.472;2023-05-10T11:35:40;6.38;;;3.97;;
23714;SDS011;12036;50.858;4.472;2023-05-10T11:38:07;5.40;;;3.45;;
23714;SDS011;12036;50.858;4.472;2023-05-10T11:40:34;5.72;;;3.35;;
23714;SDS011;12036;50.858;4.472;2023-05-10T11:43:00;4.60;;;3.78;;
23714;SDS011;12036;50.858;4.472;2023-05-10T11:45:26;5.18;;;3.42;;
23714;SDS011;12036;50.858;4.472;2023-05-10T11:47:53;5.05;;;3.58;;
23714;SDS011;12036;50.858;4.472;2023-05-10T11:50:20;5.00;;;3.35;;
23714;SDS011;12036;50.858;4.472;2023-05-10T11:52:49;4.97;;;3.50;;
23714;SDS011;12036;50.858;4.472;2023-05-10T11:55:16;5.55;;;3.45;;
23714;SDS011;12036;50.858;4.472;2023-05-10T11:57:41;3.90;;;3.30;;
23714;SDS011;12036;50.858;4.472;2023-05-10T12:00:10;5.78;;;3.55;;
23714;SDS011;12036;50.858;4.472;2023-05-10T12:02:36;3.88;;;3.05;;
23714;SDS011;12036;50.858;4.472;2023-05-10T12:05:02;5.03;;;2.88;;
23714;SDS011;12036;50.858;4.472;2023-05-10T12:07:28;4.47;;;3.13;;
23714;SDS011;12036;50.858;4.472;2023-05-10T12:10:07;3.40;;;2.85;;
23714;SDS011;12036;50.858;4.472;2023-05-10T12:12:35;6.53;;;3.42;;
23714;SDS011;12036;50.858;4.472;2023-05-10T12:15:20;10.70;;;2.70;;
23714;SDS011;12036;50.858;4.472;2023-05-10T12:17:47;4.38;;;2.90;;
23714;SDS011;12036;50.858;4.472;2023-05-10T12:22:47;4.13;;;2.97;;
23714;SDS011;12036;50.858;4.472;2023-05-10T12:25:20;5.82;;;3.17;;
23714;SDS011;12036;50.858;4.472;2023-05-10T12:27:51;6.20;;;3.00;;
23714;SDS011;12036;50.858;4.472;2023-05-10T12:30:22;5.13;;;2.90;;
23714;SDS011;12036;50.858;4.472;2023-05-10T12:32:48;5.13;;;3.10;;
23714;SDS011;12036;50.858;4.472;2023-05-10T12:35:14;3.58;;;2.70;;
23714;SDS011;12036;50.858;4.472;2023-05-10T12:37:42;4.05;;;2.60;;
23714;SDS011;12036;50.858;4.472;2023-05-10T12:40:09;5.38;;;3.00;;
23714;SDS011;12036;50.858;4.472;2023-05-10T12:42:36;5.70;;;3.17;;
23714;SDS011;12036;50.858;4.472;2023-05-10T12:45:02;5.88;;;3.30;;
23714;SDS011;12036;50.858;4.472;2023-05-10T12:47:29;5.22;;;3.70;;
23714;SDS011;12036;50.858;4.472;2023-05-10T12:49:55;6.70;;;3.85;;
23714;SDS011;12036;50.858;4.472;2023-05-10T12:52:20;6.57;;;3.67;;
23714;SDS011;12036;50.858;4.472;2023-05-10T12:54:46;4.88;;;3.95;;
23714;SDS011;12036;50.858;4.472;2023-05-10T12:57:12;5.57;;;3.00;;
23714;SDS011;12036;50.858;4.472;2023-05-10T12:59:38;4.47;;;3.70;;
23714;SDS011;12036;50.858;4.472;2023-05-10T13:02:04;5.18;;;3.78;;
23714;SDS011;12036;50.858;4.472;2023-05-10T13:04:30;6.05;;;3.80;;
23714;SDS011;12036;50.858;4.472;2023-05-10T13:06:56;6.25;;;3.75;;
23714;SDS011;12036;50.858;4.472;2023-05-10T13:09:24;6.85;;;3.67;;
23714;SDS011;12036;50.858;4.472;2023-05-10T13:11:50;5.15;;;3.92;;
23714;SDS011;12036;50.858;4.472;2023-05-10T13:14:18;5.68;;;4.18;;
23714;SDS011;12036;50.858;4.472;2023-05-10T13:16:45;7.32;;;5.43;;
23714;SDS011;12036;50.858;4.472;2023-05-10T13:19:12;8.23;;;4.72;;
23714;SDS011;12036;50.858;4.472;2023-05-10T13:21:38;7.50;;;5.55;;
23714;SDS011;12036;50.858;4.472;2023-05-10T13:24:05;7.30;;;4.93;;
23714;SDS011;12036;50.858;4.472;2023-05-10T13:26:31;8.13;;;5.50;;
23714;SDS011;12036;50.858;4.472;2023-05-10T13:28:57;10.27;;;6.10;;
23714;SDS011;12036;50.858;4.472;2023-05-10T13:31:23;11.45;;;6.35;;
23714;SDS011;12036;50.858;4.472;2023-05-10T13:33:48;8.55;;;5.43;;
23714;SDS011;12036;50.858;4.472;2023-05-10T13:36:14;6.25;;;4.00;;
23714;SDS011;12036;50.858;4.472;2023-05-10T13:38:40;4.97;;;3.97;;
23714;SDS011;12036;50.858;4.472;2023-05-10T13:41:05;7.40;;;3.75;;
23714;SDS011;12036;50.858;4.472;2023-05-10T13:43:31;5.18;;;3.63;;
23714;SDS011;12036;50.858;4.472;2023-05-10T13:45:57;5.80;;;2.83;;
23714;SDS011;12036;50.858;4.472;2023-05-10T13:48:22;4.40;;;2.80;;
23714;SDS011;12036;50.858;4.472;2023-05-10T13:50:48;4.05;;;2.53;;
23714;SDS011;12036;50.858;4.472;2023-05-10T13:53:14;6.30;;;3.58;;
23714;SDS011;12036;50.858;4.472;2023-05-10T13:55:40;11.18;;;5.40;;
23714;SDS011;12036;50.858;4.472;2023-05-10T13:58:06;6.35;;;4.05;;
23714;SDS011;12036;50.858;4.472;2023-05-10T14:00:32;4.65;;;3.90;;
23714;SDS011;12036;50.858;4.472;2023-05-10T14:02:57;3.92;;;3.38;;
23714;SDS011;12036;50.858;4.472;2023-05-10T14:05:23;7.50;;;4.18;;
23714;SDS011;12036;50.858;4.472;2023-05-10T14:07:49;9.80;;;4.60;;
23714;SDS011;12036;50.858;4.472;2023-05-10T14:10:15;6.78;;;4.70;;
23714;SDS011;12036;50.858;4.472;2023-05-10T14:12:41;8.23;;;6.55;;
23714;SDS011;12036;50.858;4.472;2023-05-10T14:15:07;7.90;;;5.22;;
23714;SDS011;12036;50.858;4.472;2023-05-10T14:17:35;9.65;;;6.97;;
23714;SDS011;12036;50.858;4.472;2023-05-10T14:20:01;11.80;;;6.20;;
23714;SDS011;12036;50.858;4.472;2023-05-10T14:22:27;5.65;;;4.80;;
23714;SDS011;12036;50.858;4.472;2023-05-10T14:24:52;7.03;;;4.75;;
23714;SDS011;12036;50.858;4.472;2023-05-10T14:27:18;8.10;;;5.63;;
23714;SDS011;12036;50.858;4.472;2023-05-10T14:29:44;11.30;;;5.75;;
23714;SDS011;12036;50.858;4.472;2023-05-10T14:32:10;11.57;;;7.40;;
23714;SDS011;12036;50.858;4.472;2023-05-10T14:34:35;11.35;;;7.47;;
23714;SDS011;12036;50.858;4.472;2023-05-10T14:37:01;9.95;;;8.32;;
23714;SDS011;12036;50.858;4.472;2023-05-10T14:39:27;16.52;;;10.38;;
23714;SDS011;12036;50.858;4.472;2023-05-10T14:41:54;16.65;;;10.45;;
23714;SDS011;12036;50.858;4.472;2023-05-10T14:44:20;15.10;;;9.68;;
23714;SDS011;12036;50.858;4.472;2023-05-10T14:46:46;16.52;;;11.15;;
23714;SDS011;12036;50.858;4.472;2023-05-10T14:49:13;20.30;;;13.73;;
23714;SDS011;12036;50.858;4.472;2023-05-10T14:51:38;19.52;;;12.38;;
23714;SDS011;12036;50.858;4.472;2023-05-10T14:54:04;15.35;;;10.82;;
23714;SDS011;12036;50.858;4.472;2023-05-10T14:56:31;17.25;;;10.07;;
23714;SDS011;12036;50.858;4.472;2023-05-10T14:58:57;15.68;;;9.63;;
23714;SDS011;12036;50.858;4.472;2023-05-10T15:01:22;16.85;;;10.10;;
23714;SDS011;12036;50.858;4.472;2023-05-10T15:03:48;15.68;;;9.77;;
23714;SDS011;12036;50.858;4.472;2023-05-10T15:06:14;19.80;;;9.95;;
23714;SDS011;12036;50.858;4.472;2023-05-10T15:08:43;16.50;;;9.80;;